sensor_id;sensor_type;location;lat;lon;timestamp;P1;durP1;ratioP1;P2;durP2;ratioP2
19193;SDS011;9729;52.296;13.260;2023-05-07T00:02:15;22.33;;;15.97;;
19193;SDS011;9729;52.296;13.260;2023-05-07T00:04:41;22.63;;;15.73;;
19193;SDS011;9729;52.296;13.260;2023-05-07T00:07:10;21.30;;;15.83;;
19193;SDS011;9729;52.296;13.260;2023-05-07T00:09:36;21.60;;;15.53;;
19193;SDS011;9729;52.296;13.260;2023-05-07T00:12:03;22.30;;;15.90;;
19193;SDS011;9729;52.296;13.260;2023-05-07T00:14:29;23.37;;;15.67;;
19193;SDS011;9729;52.296;13.260;2023-05-07T00:16:55;23.63;;;15.17;;
19193;SDS011;9729;52.296;13.260;2023-05-07T00:19:22;22.70;;;14.63;;
19193;SDS011;9729;52.296;13.260;2023-05-07T00:21:48;19.20;;;14.10;;
19193;SDS011;9729;52.296;13.260;2023-05-07T00:24:15;18.90;;;13.70;;
19193;SDS011;9729;52.296;13.260;2023-05-07T00:26:42;19.50;;;14.50;;
19193;SDS011;9729;52.296;13.260;2023-05-07T00:29:08;24.60;;;15.37;;
19193;SDS011;9729;52.296;13.260;2023-05-07T00:31:34;19.70;;;14.30;;
19193;SDS011;9729;52.296;13.260;2023-05-07T00:34:01;20.90;;;14.50;;
19193;SDS011;9729;52.296;13.260;2023-05-07T00:36:27;22.73;;;15.20;;
19193;SDS011;9729;52.296;13.260;2023-05-07T00:38:54;18.57;;;13.93;;
19193;SDS011;9729;52.296;13.260;2023-05-07T00:41:22;20.37;;;14.97;;
19193;SDS011;9729;52.296;13.260;2023-05-07T00:43:48;23.30;;;14.17;;
19193;SDS011;9729;52.296;13.260;2023-05-07T00:46:16;19.47;;;13.90;;
19193;SDS011;9729;52.296;13.260;2023-05-07T00:48:43;21.10;;;13.90;;
19193;SDS011;9729;52.296;13.260;2023-05-07T00:51:09;22.57;;;14.13;;
19193;SDS011;9729;52.296;13.260;2023-05-07T00:53:36;24.67;;;14.53;;
19193;SDS011;9729;52.296;13.260;2023-05-07T00:56:02;20.27;;;14.87;;
19193;SDS011;9729;52.296;13.260;2023-05-07T00:58:31;18.33;;;12.83;;
19193;SDS011;9729;52.296;13.260;2023-05-07T01:00:58;18.20;;;14.77;;
19193;SDS011;9729;52.296;13.260;2023-05-07T01:03:25;19.40;;;14.07;;
19193;SDS011;9729;52.296;13.260;2023-05-07T01:05:51;19.40;;;13.40;;
19193;SDS011;9729;52.296;13.260;2023-05-07T01:08:18;19.10;;;15.07;;
19193;SDS011;9729;52.296;13.260;2023-05-07T01:10:44;17.37;;;13.90;;
19193;SDS011;9729;52.296;13.260;2023-05-07T01:13:11;21.83;;;14.33;;
19193;SDS011;9729;52.296;13.260;2023-05-07T01:15:39;21.73;;;14.97;;
19193;SDS011;9729;52.296;13.260;2023-05-07T01:18:06;17.97;;;13.00;;
19193;SDS011;9729;52.296;13.260;2023-05-07T01:20:33;25.07;;;13.47;;
19193;SDS011;9729;52.296;13.260;2023-05-07T01:23:02;17.73;;;12.90;;
19193;SDS011;9729;52.296;13.260;2023-05-07T01:25:29;21.43;;;13.23;;
19193;SDS011;9729;52.296;13.260;2023-05-07T01:27:55;22.20;;;14.17;;
19193;SDS011;9729;52.296;13.260;2023-05-07T01:30:22;16.77;;;13.33;;
19193;SDS011;9729;52.296;13.260;2023-05-07T01:32:49;18.17;;;13.10;;
19193;SDS011;9729;52.296;13.260;2023-05-07T01:35:18;18.80;;;13.00;;
19193;SDS011;9729;52.296;13.260;2023-05-07T01:37:47;27.73;;;13.87;;
19193;SDS011;9729;52.296;13.260;2023-05-07T01:40:15;20.37;;;12.97;;
19193;SDS011;9729;52.296;13.260;2023-05-07T01:42:41;17.37;;;12.30;;
19193;SDS011;9729;52.296;13.260;2023-05-07T01:45:09;21.97;;;14.03;;
19193;SDS011;9729;52.296;13.260;2023-05-07T01:47:36;19.23;;;13.30;;
19193;SDS011;9729;52.296;13.260;2023-05-07T01:50:03;17.50;;;12.70;;
19193;SDS011;9729;52.296;13.260;2023-05-07T01:52:31;16.33;;;13.27;;
19193;SDS011;9729;52.296;13.260;2023-05-07T01:54:57;22.33;;;13.73;;
19193;SDS011;9729;52.296;13.260;2023-05-07T01:57:25;18.00;;;13.30;;
19193;SDS011;9729;52.296;13.260;2023-05-07T01:59:52;23.33;;;13.33;;
19193;SDS011;9729;52.296;13.260;2023-05-07T02:02:18;16.60;;;12.63;;
19193;SDS011;9729;52.296;13.260;2023-05-07T02:04:44;17.03;;;12.90;;
19193;SDS011;9729;52.296;13.260;2023-05-07T02:07:11;20.40;;;11.87;;
19193;SDS011;9729;52.296;13.260;2023-05-07T02:09:37;15.77;;;12.77;;
19193;SDS011;9729;52.296;13.260;2023-05-07T02:12:04;16.00;;;13.27;;
19193;SDS011;9729;52.296;13.260;2023-05-07T02:14:31;15.60;;;11.90;;
19193;SDS011;9729;52.296;13.260;2023-05-07T02:16:58;17.20;;;11.83;;
19193;SDS011;9729;52.296;13.260;2023-05-07T02:19:24;17.90;;;12.27;;
19193;SDS011;9729;52.296;13.260;2023-05-07T02:21:50;18.07;;;13.23;;
19193;SDS011;9729;52.296;13.260;2023-05-07T02:24:18;20.97;;;12.63;;
19193;SDS011;9729;52.296;13.260;2023-05-07T02:26:44;20.20;;;11.53;;
19193;SDS011;9729;52.296;13.260;2023-05-07T02:29:10;16.40;;;12.37;;
19193;SDS011;9729;52.296;13.260;2023-05-07T02:31:38;16.07;;;12.10;;
19193;SDS011;9729;52.296;13.260;2023-05-07T02:34:04;17.50;;;11.17;;
19193;SDS011;9729;52.296;13.260;2023-05-07T02:36:31;19.37;;;12.07;;
19193;SDS011;9729;52.296;13.260;2023-05-07T02:38:57;17.57;;;11.70;;
19193;SDS011;9729;52.296;13.260;2023-05-07T02:41:23;15.40;;;12.27;;
19193;SDS011;9729;52.296;13.260;2023-05-07T02:43:50;17.50;;;13.03;;
19193;SDS011;9729;52.296;13.260;2023-05-07T02:46:16;20.87;;;12.30;;
19193;SDS011;9729;52.296;13.260;2023-05-07T02:48:44;14.67;;;11.73;;
19193;SDS011;9729;52.296;13.260;2023-05-07T02:51:10;18.20;;;12.90;;
19193;SDS011;9729;52.296;13.260;2023-05-07T02:53:36;18.37;;;12.80;;
19193;SDS011;9729;52.296;13.260;2023-05-07T02:56:04;18.17;;;12.07;;
19193;SDS011;9729;52.296;13.260;2023-05-07T02:58:31;18.40;;;13.07;;
19193;SDS011;9729;52.296;13.260;2023-05-07T03:00:57;17.20;;;12.60;;
19193;SDS011;9729;52.296;13.260;2023-05-07T03:03:23;19.40;;;13.07;;
19193;SDS011;9729;52.296;13.260;2023-05-07T03:05:51;16.57;;;11.83;;
19193;SDS011;9729;52.296;13.260;2023-05-07T03:08:18;21.13;;;11.93;;
19193;SDS011;9729;52.296;13.260;2023-05-07T03:10:44;19.50;;;12.40;;
19193;SDS011;9729;52.296;13.260;2023-05-07T03:13:10;18.60;;;11.57;;
19193;SDS011;9729;52.296;13.260;2023-05-07T03:15:37;20.50;;;13.27;;
19193;SDS011;9729;52.296;13.260;2023-05-07T03:18:03;19.00;;;11.80;;
19193;SDS011;9729;52.296;13.260;2023-05-07T03:20:30;16.40;;;11.77;;
19193;SDS011;9729;52.296;13.260;2023-05-07T03:22:57;16.63;;;12.00;;
19193;SDS011;9729;52.296;13.260;2023-05-07T03:25:24;17.90;;;12.60;;
19193;SDS011;9729;52.296;13.260;2023-05-07T03:27:50;16.63;;;11.97;;
19193;SDS011;9729;52.296;13.260;2023-05-07T03:30:17;18.87;;;13.87;;
19193;SDS011;9729;52.296;13.260;2023-05-07T03:32:43;18.17;;;12.70;;
19193;SDS011;9729;52.296;13.260;2023-05-07T03:35:09;17.67;;;13.10;;
19193;SDS011;9729;52.296;13.260;2023-05-07T03:37:36;25.00;;;12.93;;
19193;SDS011;9729;52.296;13.260;2023-05-07T03:40:04;15.43;;;12.37;;
19193;SDS011;9729;52.296;13.260;2023-05-07T03:42:31;23.53;;;14.10;;
19193;SDS011;9729;52.296;13.260;2023-05-07T03:44:57;16.30;;;13.00;;
19193;SDS011;9729;52.296;13.260;2023-05-07T03:47:24;19.20;;;13.63;;
19193;SDS011;9729;52.296;13.260;2023-05-07T03:49:50;16.30;;;12.53;;
19193;SDS011;9729;52.296;13.260;2023-05-07T03:52:18;20.90;;;12.03;;
19193;SDS011;9729;52.296;13.260;2023-05-07T03:54:48;17.70;;;11.90;;
19193;SDS011;9729;52.296;13.260;2023-05-07T03:57:16;19.43;;;13.23;;
19193;SDS011;9729;52.296;13.260;2023-05-07T03:59:43;16.60;;;12.13;;
19193;SDS011;9729;52.296;13.260;2023-05-07T04:02:10;16.30;;;11.63;;
19193;SDS011;9729;52.296;13.260;2023-05-07T04:04:37;20.33;;;12.00;;
19193;SDS011;9729;52.296;13.260;2023-05-07T04:07:03;16.53;;;11.87;;
19193;SDS011;9729;52.296;13.260;2023-05-07T04:09:30;15.77;;;11.50;;
19193;SDS011;9729;52.296;13.260;2023-05-07T04:11:56;15.47;;;11.83;;
19193;SDS011;9729;52.296;13.260;2023-05-07T04:14:24;14.40;;;11.57;;
19193;SDS011;9729;52.296;13.260;2023-05-07T04:16:50;16.03;;;11.57;;
19193;SDS011;9729;52.296;13.260;2023-05-07T04:19:19;19.83;;;13.13;;
19193;SDS011;9729;52.296;13.260;2023-05-07T04:21:46;15.97;;;12.43;;
19193;SDS011;9729;52.296;13.260;2023-05-07T04:24:12;18.50;;;13.93;;
19193;SDS011;9729;52.296;13.260;2023-05-07T04:26:38;15.20;;;11.87;;
19193;SDS011;9729;52.296;13.260;2023-05-07T04:29:05;15.90;;;11.70;;
19193;SDS011;9729;52.296;13.260;2023-05-07T04:31:33;17.27;;;13.63;;
19193;SDS011;9729;52.296;13.260;2023-05-07T04:33:59;19.00;;;13.10;;
19193;SDS011;9729;52.296;13.260;2023-05-07T04:36:25;22.13;;;13.73;;
19193;SDS011;9729;52.296;13.260;2023-05-07T04:38:52;21.90;;;13.97;;
19193;SDS011;9729;52.296;13.260;2023-05-07T04:41:19;20.27;;;13.40;;
19193;SDS011;9729;52.296;13.260;2023-05-07T04:43:45;27.00;;;13.30;;
19193;SDS011;9729;52.296;13.260;2023-05-07T04:46:11;17.47;;;13.67;;
19193;SDS011;9729;52.296;13.260;2023-05-07T04:48:39;17.93;;;13.30;;
19193;SDS011;9729;52.296;13.260;2023-05-07T04:51:06;20.30;;;13.33;;
19193;SDS011;9729;52.296;13.260;2023-05-07T04:53:32;17.63;;;14.20;;
19193;SDS011;9729;52.296;13.260;2023-05-07T04:55:58;16.50;;;13.07;;
19193;SDS011;9729;52.296;13.260;2023-05-07T04:58:25;13.53;;;11.67;;
19193;SDS011;9729;52.296;13.260;2023-05-07T05:00:51;16.90;;;12.53;;
19193;SDS011;9729;52.296;13.260;2023-05-07T05:03:17;18.03;;;13.70;;
19193;SDS011;9729;52.296;13.260;2023-05-07T05:05:45;19.20;;;13.60;;
19193;SDS011;9729;52.296;13.260;2023-05-07T05:08:11;19.37;;;13.50;;
19193;SDS011;9729;52.296;13.260;2023-05-07T05:10:39;15.50;;;12.47;;
19193;SDS011;9729;52.296;13.260;2023-05-07T05:13:06;21.07;;;12.80;;
19193;SDS011;9729;52.296;13.260;2023-05-07T05:15:33;21.27;;;12.63;;
19193;SDS011;9729;52.296;13.260;2023-05-07T05:17:59;14.27;;;12.07;;
19193;SDS011;9729;52.296;13.260;2023-05-07T05:20:25;19.37;;;12.63;;
19193;SDS011;9729;52.296;13.260;2023-05-07T05:22:53;17.63;;;12.50;;
19193;SDS011;9729;52.296;13.260;2023-05-07T05:25:20;15.67;;;11.93;;
19193;SDS011;9729;52.296;13.260;2023-05-07T05:27:46;14.30;;;12.10;;
19193;SDS011;9729;52.296;13.260;2023-05-07T05:30:12;15.23;;;12.57;;
19193;SDS011;9729;52.296;13.260;2023-05-07T05:32:39;16.10;;;11.20;;
19193;SDS011;9729;52.296;13.260;2023-05-07T05:35:06;15.70;;;12.10;;
19193;SDS011;9729;52.296;13.260;2023-05-07T05:37:33;20.33;;;12.93;;
19193;SDS011;9729;52.296;13.260;2023-05-07T05:40:02;18.20;;;12.80;;
19193;SDS011;9729;52.296;13.260;2023-05-07T05:42:29;14.90;;;11.70;;
19193;SDS011;9729;52.296;13.260;2023-05-07T05:44:55;17.50;;;12.50;;
19193;SDS011;9729;52.296;13.260;2023-05-07T05:47:22;20.30;;;11.80;;
19193;SDS011;9729;52.296;13.260;2023-05-07T05:49:51;16.37;;;11.03;;
19193;SDS011;9729;52.296;13.260;2023-05-07T05:52:18;17.90;;;11.50;;
19193;SDS011;9729;52.296;13.260;2023-05-07T05:54:44;20.23;;;11.57;;
19193;SDS011;9729;52.296;13.260;2023-05-07T05:57:12;15.80;;;10.57;;
19193;SDS011;9729;52.296;13.260;2023-05-07T05:59:38;15.77;;;11.83;;
19193;SDS011;9729;52.296;13.260;2023-05-07T06:02:05;17.63;;;12.20;;
19193;SDS011;9729;52.296;13.260;2023-05-07T06:04:32;14.10;;;11.43;;
19193;SDS011;9729;52.296;13.260;2023-05-07T06:06:59;14.80;;;11.10;;
19193;SDS011;9729;52.296;13.260;2023-05-07T06:09:25;15.63;;;11.00;;
19193;SDS011;9729;52.296;13.260;2023-05-07T06:11:51;14.70;;;10.90;;
19193;SDS011;9729;52.296;13.260;2023-05-07T06:14:19;15.80;;;10.93;;
19193;SDS011;9729;52.296;13.260;2023-05-07T06:16:45;17.00;;;11.87;;
19193;SDS011;9729;52.296;13.260;2023-05-07T06:19:12;21.00;;;11.20;;
19193;SDS011;9729;52.296;13.260;2023-05-07T06:21:39;12.40;;;10.03;;
19193;SDS011;9729;52.296;13.260;2023-05-07T06:24:06;15.40;;;11.17;;
19193;SDS011;9729;52.296;13.260;2023-05-07T06:26:33;17.93;;;11.27;;
19193;SDS011;9729;52.296;13.260;2023-05-07T06:28:59;18.30;;;12.10;;
19193;SDS011;9729;52.296;13.260;2023-05-07T06:31:29;14.93;;;10.80;;
19193;SDS011;9729;52.296;13.260;2023-05-07T06:33:56;14.63;;;10.17;;
19193;SDS011;9729;52.296;13.260;2023-05-07T06:36:23;13.33;;;9.97;;
19193;SDS011;9729;52.296;13.260;2023-05-07T06:38:51;13.73;;;9.90;;
19193;SDS011;9729;52.296;13.260;2023-05-07T06:41:17;12.07;;;10.53;;
19193;SDS011;9729;52.296;13.260;2023-05-07T06:43:44;15.40;;;12.07;;
19193;SDS011;9729;52.296;13.260;2023-05-07T06:46:10;14.90;;;11.93;;
19193;SDS011;9729;52.296;13.260;2023-05-07T06:48:37;14.87;;;10.83;;
19193;SDS011;9729;52.296;13.260;2023-05-07T06:51:04;15.83;;;10.43;;
19193;SDS011;9729;52.296;13.260;2023-05-07T06:53:30;9.97;;;8.60;;
19193;SDS011;9729;52.296;13.260;2023-05-07T06:55:57;13.50;;;9.60;;
19193;SDS011;9729;52.296;13.260;2023-05-07T06:58:23;12.17;;;9.77;;
19193;SDS011;9729;52.296;13.260;2023-05-07T07:00:50;13.73;;;10.83;;
19193;SDS011;9729;52.296;13.260;2023-05-07T07:03:17;10.93;;;9.80;;
19193;SDS011;9729;52.296;13.260;2023-05-07T07:05:44;16.87;;;10.80;;
19193;SDS011;9729;52.296;13.260;2023-05-07T07:08:10;16.47;;;12.97;;
19193;SDS011;9729;52.296;13.260;2023-05-07T07:10:37;17.43;;;12.03;;
19193;SDS011;9729;52.296;13.260;2023-05-07T07:13:03;18.00;;;11.73;;
19193;SDS011;9729;52.296;13.260;2023-05-07T07:15:30;16.43;;;12.30;;
19193;SDS011;9729;52.296;13.260;2023-05-07T07:17:57;11.63;;;7.83;;
19193;SDS011;9729;52.296;13.260;2023-05-07T07:20:23;9.83;;;7.87;;
19193;SDS011;9729;52.296;13.260;2023-05-07T07:22:51;13.83;;;9.23;;
19193;SDS011;9729;52.296;13.260;2023-05-07T07:25:17;10.60;;;7.63;;
19193;SDS011;9729;52.296;13.260;2023-05-07T07:27:44;10.70;;;7.30;;
19193;SDS011;9729;52.296;13.260;2023-05-07T07:30:10;11.20;;;8.70;;
19193;SDS011;9729;52.296;13.260;2023-05-07T07:32:37;11.20;;;7.00;;
19193;SDS011;9729;52.296;13.260;2023-05-07T07:35:03;7.33;;;6.40;;
19193;SDS011;9729;52.296;13.260;2023-05-07T07:37:30;9.60;;;7.73;;
19193;SDS011;9729;52.296;13.260;2023-05-07T07:40:00;7.83;;;7.03;;
19193;SDS011;9729;52.296;13.260;2023-05-07T07:42:26;9.70;;;6.00;;
19193;SDS011;9729;52.296;13.260;2023-05-07T07:44:54;8.90;;;5.87;;
19193;SDS011;9729;52.296;13.260;2023-05-07T07:47:20;13.53;;;6.60;;
19193;SDS011;9729;52.296;13.260;2023-05-07T07:49:46;7.47;;;5.60;;
19193;SDS011;9729;52.296;13.260;2023-05-07T07:52:13;7.70;;;6.40;;
19193;SDS011;9729;52.296;13.260;2023-05-07T07:54:39;8.33;;;6.00;;
19193;SDS011;9729;52.296;13.260;2023-05-07T07:57:07;6.10;;;5.50;;
19193;SDS011;9729;52.296;13.260;2023-05-07T07:59:33;6.93;;;5.57;;
19193;SDS011;9729;52.296;13.260;2023-05-07T08:02:00;7.47;;;6.17;;
19193;SDS011;9729;52.296;13.260;2023-05-07T08:04:26;6.23;;;5.47;;
19193;SDS011;9729;52.296;13.260;2023-05-07T08:06:52;7.27;;;5.63;;
19193;SDS011;9729;52.296;13.260;2023-05-07T08:09:20;6.80;;;5.47;;
19193;SDS011;9729;52.296;13.260;2023-05-07T08:11:46;8.93;;;5.80;;
19193;SDS011;9729;52.296;13.260;2023-05-07T08:14:14;6.13;;;5.40;;
19193;SDS011;9729;52.296;13.260;2023-05-07T08:16:40;6.03;;;5.43;;
19193;SDS011;9729;52.296;13.260;2023-05-07T08:19:06;7.83;;;5.50;;
19193;SDS011;9729;52.296;13.260;2023-05-07T08:21:33;6.20;;;4.67;;
19193;SDS011;9729;52.296;13.260;2023-05-07T08:24:00;7.37;;;5.40;;
19193;SDS011;9729;52.296;13.260;2023-05-07T08:26:26;7.47;;;5.83;;
19193;SDS011;9729;52.296;13.260;2023-05-07T08:28:53;7.10;;;5.50;;
19193;SDS011;9729;52.296;13.260;2023-05-07T08:31:22;5.40;;;4.90;;
19193;SDS011;9729;52.296;13.260;2023-05-07T08:33:48;7.53;;;6.25;;
19193;SDS011;9729;52.296;13.260;2023-05-07T08:36:14;9.00;;;5.60;;
19193;SDS011;9729;52.296;13.260;2023-05-07T08:38:41;6.90;;;5.10;;
19193;SDS011;9729;52.296;13.260;2023-05-07T08:41:09;7.10;;;5.70;;
19193;SDS011;9729;52.296;13.260;2023-05-07T08:43:36;6.30;;;5.40;;
19193;SDS011;9729;52.296;13.260;2023-05-07T08:46:04;5.83;;;5.00;;
19193;SDS011;9729;52.296;13.260;2023-05-07T08:48:32;6.57;;;5.40;;
19193;SDS011;9729;52.296;13.260;2023-05-07T08:50:58;6.63;;;5.10;;
19193;SDS011;9729;52.296;13.260;2023-05-07T08:53:25;8.30;;;4.63;;
19193;SDS011;9729;52.296;13.260;2023-05-07T08:55:51;22.25;;;7.68;;
19193;SDS011;9729;52.296;13.260;2023-05-07T08:58:18;6.10;;;5.33;;
19193;SDS011;9729;52.296;13.260;2023-05-07T09:00:45;10.40;;;5.07;;
19193;SDS011;9729;52.296;13.260;2023-05-07T09:03:12;4.70;;;4.00;;
19193;SDS011;9729;52.296;13.260;2023-05-07T09:05:40;7.55;;;5.07;;
19193;SDS011;9729;52.296;13.260;2023-05-07T09:08:08;6.27;;;4.97;;
19193;SDS011;9729;52.296;13.260;2023-05-07T09:10:35;5.27;;;4.77;;
19193;SDS011;9729;52.296;13.260;2023-05-07T09:13:02;7.33;;;4.67;;
19193;SDS011;9729;52.296;13.260;2023-05-07T09:15:28;6.07;;;4.77;;
19193;SDS011;9729;52.296;13.260;2023-05-07T09:17:56;5.77;;;5.03;;
19193;SDS011;9729;52.296;13.260;2023-05-07T09:20:26;5.33;;;4.77;;
19193;SDS011;9729;52.296;13.260;2023-05-07T09:22:53;6.90;;;5.20;;
19193;SDS011;9729;52.296;13.260;2023-05-07T09:25:27;6.47;;;5.20;;
19193;SDS011;9729;52.296;13.260;2023-05-07T09:27:54;6.30;;;4.00;;
19193;SDS011;9729;52.296;13.260;2023-05-07T09:30:21;8.10;;;4.57;;
19193;SDS011;9729;52.296;13.260;2023-05-07T09:32:47;18.13;;;5.20;;
19193;SDS011;9729;52.296;13.260;2023-05-07T09:35:16;5.88;;;4.05;;
19193;SDS011;9729;52.296;13.260;2023-05-07T09:37:43;6.03;;;4.10;;
19193;SDS011;9729;52.296;13.260;2023-05-07T09:40:12;3.60;;;3.30;;
19193;SDS011;9729;52.296;13.260;2023-05-07T09:42:46;5.30;;;4.20;;
19193;SDS011;9729;52.296;13.260;2023-05-07T09:45:13;4.80;;;4.30;;
19193;SDS011;9729;52.296;13.260;2023-05-07T09:47:39;5.23;;;4.27;;
19193;SDS011;9729;52.296;13.260;2023-05-07T09:50:10;4.67;;;4.00;;
19193;SDS011;9729;52.296;13.260;2023-05-07T09:52:39;4.33;;;3.93;;
19193;SDS011;9729;52.296;13.260;2023-05-07T09:55:06;4.17;;;3.50;;
19193;SDS011;9729;52.296;13.260;2023-05-07T09:57:34;4.67;;;3.67;;
19193;SDS011;9729;52.296;13.260;2023-05-07T10:00:04;4.97;;;3.60;;
19193;SDS011;9729;52.296;13.260;2023-05-07T10:02:42;7.03;;;4.03;;
19193;SDS011;9729;52.296;13.260;2023-05-07T10:05:16;5.13;;;4.20;;
19193;SDS011;9729;52.296;13.260;2023-05-07T10:07:43;4.07;;;3.67;;
19193;SDS011;9729;52.296;13.260;2023-05-07T10:10:14;6.23;;;4.10;;
19193;SDS011;9729;52.296;13.260;2023-05-07T10:12:50;8.20;;;4.10;;
19193;SDS011;9729;52.296;13.260;2023-05-07T10:15:20;4.23;;;3.83;;
19193;SDS011;9729;52.296;13.260;2023-05-07T10:17:48;8.60;;;4.57;;
19193;SDS011;9729;52.296;13.260;2023-05-07T10:20:26;7.43;;;4.50;;
19193;SDS011;9729;52.296;13.260;2023-05-07T10:22:59;4.73;;;4.33;;
19193;SDS011;9729;52.296;13.260;2023-05-07T10:25:30;4.80;;;4.40;;
19193;SDS011;9729;52.296;13.260;2023-05-07T10:28:25;5.20;;;4.80;;
19193;SDS011;9729;52.296;13.260;2023-05-07T10:31:11;4.50;;;4.10;;
19193;SDS011;9729;52.296;13.260;2023-05-07T10:33:56;5.77;;;5.27;;
19193;SDS011;9729;52.296;13.260;2023-05-07T10:36:36;6.33;;;4.53;;
19193;SDS011;9729;52.296;13.260;2023-05-07T10:39:09;6.07;;;5.00;;
19193;SDS011;9729;52.296;13.260;2023-05-07T10:44:56;6.00;;;5.37;;
19193;SDS011;9729;52.296;13.260;2023-05-07T10:57:03;6.90;;;5.43;;
19193;SDS011;9729;52.296;13.260;2023-05-07T11:03:17;7.60;;;3.80;;
19193;SDS011;9729;52.296;13.260;2023-05-07T11:06:08;6.13;;;4.20;;
19193;SDS011;9729;52.296;13.260;2023-05-07T11:08:53;9.77;;;4.20;;
19193;SDS011;9729;52.296;13.260;2023-05-07T11:14:42;5.00;;;3.50;;
19193;SDS011;9729;52.296;13.260;2023-05-07T11:17:11;4.13;;;3.80;;
19193;SDS011;9729;52.296;13.260;2023-05-07T11:19:50;4.77;;;4.13;;
19193;SDS011;9729;52.296;13.260;2023-05-07T11:22:35;4.70;;;4.03;;
19193;SDS011;9729;52.296;13.260;2023-05-07T11:25:06;8.63;;;4.63;;
19193;SDS011;9729;52.296;13.260;2023-05-07T11:27:32;4.37;;;3.97;;
19193;SDS011;9729;52.296;13.260;2023-05-07T11:29:59;4.30;;;3.90;;
19193;SDS011;9729;52.296;13.260;2023-05-07T11:32:27;5.53;;;3.73;;
19193;SDS011;9729;52.296;13.260;2023-05-07T11:34:55;7.83;;;3.80;;
19193;SDS011;9729;52.296;13.260;2023-05-07T11:37:22;6.10;;;4.23;;
19193;SDS011;9729;52.296;13.260;2023-05-07T11:39:49;4.30;;;3.90;;
19193;SDS011;9729;52.296;13.260;2023-05-07T11:42:25;5.60;;;3.50;;
19193;SDS011;9729;52.296;13.260;2023-05-07T11:44:54;5.33;;;3.40;;
19193;SDS011;9729;52.296;13.260;2023-05-07T11:47:21;3.90;;;3.27;;
19193;SDS011;9729;52.296;13.260;2023-05-07T11:49:49;7.33;;;4.20;;
19193;SDS011;9729;52.296;13.260;2023-05-07T11:52:16;5.20;;;4.30;;
19193;SDS011;9729;52.296;13.260;2023-05-07T11:54:48;5.07;;;3.70;;
19193;SDS011;9729;52.296;13.260;2023-05-07T11:57:14;6.37;;;3.63;;
19193;SDS011;9729;52.296;13.260;2023-05-07T11:59:41;5.83;;;4.00;;
19193;SDS011;9729;52.296;13.260;2023-05-07T12:02:09;4.90;;;4.27;;
19193;SDS011;9729;52.296;13.260;2023-05-07T12:04:35;3.40;;;3.20;;
19193;SDS011;9729;52.296;13.260;2023-05-07T12:07:03;5.67;;;3.70;;
19193;SDS011;9729;52.296;13.260;2023-05-07T12:09:32;5.27;;;3.70;;
19193;SDS011;9729;52.296;13.260;2023-05-07T12:12:02;4.33;;;3.47;;
19193;SDS011;9729;52.296;13.260;2023-05-07T12:14:29;6.80;;;3.60;;
19193;SDS011;9729;52.296;13.260;2023-05-07T12:16:56;4.90;;;3.53;;
19193;SDS011;9729;52.296;13.260;2023-05-07T12:19:23;3.50;;;3.20;;
19193;SDS011;9729;52.296;13.260;2023-05-07T12:21:49;3.37;;;3.07;;
19193;SDS011;9729;52.296;13.260;2023-05-07T12:24:17;4.03;;;2.93;;
19193;SDS011;9729;52.296;13.260;2023-05-07T12:26:43;6.80;;;3.57;;
19193;SDS011;9729;52.296;13.260;2023-05-07T12:29:09;3.63;;;3.20;;
19193;SDS011;9729;52.296;13.260;2023-05-07T12:31:36;4.53;;;3.27;;
19193;SDS011;9729;52.296;13.260;2023-05-07T12:34:02;5.43;;;3.40;;
19193;SDS011;9729;52.296;13.260;2023-05-07T12:36:35;3.57;;;3.27;;
19193;SDS011;9729;52.296;13.260;2023-05-07T12:39:03;7.50;;;3.40;;
19193;SDS011;9729;52.296;13.260;2023-05-07T12:41:34;3.00;;;2.70;;
19193;SDS011;9729;52.296;13.260;2023-05-07T12:44:03;3.40;;;2.90;;
19193;SDS011;9729;52.296;13.260;2023-05-07T12:46:30;3.83;;;3.20;;
19193;SDS011;9729;52.296;13.260;2023-05-07T12:48:56;4.43;;;3.13;;
19193;SDS011;9729;52.296;13.260;2023-05-07T12:51:22;6.13;;;3.20;;
19193;SDS011;9729;52.296;13.260;2023-05-07T12:53:49;3.40;;;3.20;;
19193;SDS011;9729;52.296;13.260;2023-05-07T12:56:15;3.27;;;2.97;;
19193;SDS011;9729;52.296;13.260;2023-05-07T12:58:43;3.20;;;2.97;;
19193;SDS011;9729;52.296;13.260;2023-05-07T13:01:10;3.40;;;3.10;;
19193;SDS011;9729;52.296;13.260;2023-05-07T13:03:40;3.37;;;3.07;;
19193;SDS011;9729;52.296;13.260;2023-05-07T13:06:07;2.83;;;2.70;;
19193;SDS011;9729;52.296;13.260;2023-05-07T13:08:35;4.60;;;3.00;;
19193;SDS011;9729;52.296;13.260;2023-05-07T13:11:06;6.20;;;2.87;;
19193;SDS011;9729;52.296;13.260;2023-05-07T13:13:34;7.97;;;3.37;;
19193;SDS011;9729;52.296;13.260;2023-05-07T13:16:02;2.70;;;2.50;;
19193;SDS011;9729;52.296;13.260;2023-05-07T13:18:30;3.33;;;2.87;;
19193;SDS011;9729;52.296;13.260;2023-05-07T13:20:57;2.80;;;2.50;;
19193;SDS011;9729;52.296;13.260;2023-05-07T13:23:25;3.00;;;2.80;;
19193;SDS011;9729;52.296;13.260;2023-05-07T13:25:51;3.20;;;2.70;;
19193;SDS011;9729;52.296;13.260;2023-05-07T13:28:18;3.10;;;2.90;;
19193;SDS011;9729;52.296;13.260;2023-05-07T13:30:45;2.40;;;2.20;;
19193;SDS011;9729;52.296;13.260;2023-05-07T13:33:13;5.20;;;2.33;;
19193;SDS011;9729;52.296;13.260;2023-05-07T13:35:40;2.37;;;2.17;;
19193;SDS011;9729;52.296;13.260;2023-05-07T13:38:06;2.80;;;2.60;;
19193;SDS011;9729;52.296;13.260;2023-05-07T13:40:33;3.00;;;2.80;;
19193;SDS011;9729;52.296;13.260;2023-05-07T13:42:59;3.07;;;2.80;;
19193;SDS011;9729;52.296;13.260;2023-05-07T13:45:27;2.93;;;2.63;;
19193;SDS011;9729;52.296;13.260;2023-05-07T13:47:54;4.20;;;2.87;;
19193;SDS011;9729;52.296;13.260;2023-05-07T13:50:22;5.30;;;2.77;;
19193;SDS011;9729;52.296;13.260;2023-05-07T13:52:49;3.60;;;2.80;;
19193;SDS011;9729;52.296;13.260;2023-05-07T13:55:16;3.27;;;2.43;;
19193;SDS011;9729;52.296;13.260;2023-05-07T13:57:43;2.40;;;2.13;;
19193;SDS011;9729;52.296;13.260;2023-05-07T14:00:10;2.43;;;2.17;;
19193;SDS011;9729;52.296;13.260;2023-05-07T14:02:37;3.43;;;2.80;;
19193;SDS011;9729;52.296;13.260;2023-05-07T14:05:04;2.33;;;2.20;;
19193;SDS011;9729;52.296;13.260;2023-05-07T14:07:31;2.40;;;2.20;;
19193;SDS011;9729;52.296;13.260;2023-05-07T14:09:58;5.97;;;3.67;;
19193;SDS011;9729;52.296;13.260;2023-05-07T14:12:24;6.00;;;2.37;;
19193;SDS011;9729;52.296;13.260;2023-05-07T14:14:50;2.70;;;2.30;;
19193;SDS011;9729;52.296;13.260;2023-05-07T14:17:17;3.60;;;2.63;;
19193;SDS011;9729;52.296;13.260;2023-05-07T14:19:43;3.20;;;2.40;;
19193;SDS011;9729;52.296;13.260;2023-05-07T14:22:10;3.57;;;2.70;;
19193;SDS011;9729;52.296;13.260;2023-05-07T14:24:37;3.60;;;2.53;;
19193;SDS011;9729;52.296;13.260;2023-05-07T14:27:04;2.70;;;2.50;;
19193;SDS011;9729;52.296;13.260;2023-05-07T14:29:30;2.70;;;2.40;;
19193;SDS011;9729;52.296;13.260;2023-05-07T14:31:57;2.87;;;2.67;;
19193;SDS011;9729;52.296;13.260;2023-05-07T14:34:23;6.50;;;2.47;;
19193;SDS011;9729;52.296;13.260;2023-05-07T14:36:50;4.13;;;2.50;;
19193;SDS011;9729;52.296;13.260;2023-05-07T14:39:17;4.53;;;3.17;;
19193;SDS011;9729;52.296;13.260;2023-05-07T14:41:44;3.20;;;2.63;;
19193;SDS011;9729;52.296;13.260;2023-05-07T14:44:11;2.63;;;2.43;;
19193;SDS011;9729;52.296;13.260;2023-05-07T14:46:37;2.73;;;2.53;;
19193;SDS011;9729;52.296;13.260;2023-05-07T14:49:04;3.43;;;2.73;;
19193;SDS011;9729;52.296;13.260;2023-05-07T14:51:30;3.07;;;2.60;;
19193;SDS011;9729;52.296;13.260;2023-05-07T14:53:57;3.57;;;2.87;;
19193;SDS011;9729;52.296;13.260;2023-05-07T14:56:25;6.10;;;2.93;;